createdAt,value
2022-11-17T00:00:17.905Z,6.67
2022-11-17T00:02:44.929Z,6.63
2022-11-17T00:05:11.721Z,6.74
2022-11-17T00:07:38.340Z,6.83
2022-11-17T00:10:05.552Z,6.88
2022-11-17T00:12:33.154Z,6.86
2022-11-17T00:15:00.023Z,6.85
2022-11-17T00:17:26.713Z,6.88
2022-11-17T00:19:53.397Z,6.79
2022-11-17T00:22:20.686Z,6.45
2022-11-17T00:24:48.553Z,7.10
2022-11-17T00:27:15.476Z,7.00
2022-11-17T00:29:42.112Z,6.89
2022-11-17T00:32:13.653Z,6.46
2022-11-17T00:34:40.649Z,6.34
2022-11-17T00:37:08.865Z,6.43
2022-11-17T00:39:35.537Z,6.52
2022-11-17T00:42:02.440Z,6.65
2022-11-17T00:44:29.818Z,6.92
2022-11-17T00:46:56.507Z,6.73
2022-11-17T00:49:23.613Z,6.88
2022-11-17T00:51:50.387Z,6.65
2022-11-17T00:54:17.048Z,6.35
2022-11-17T00:56:43.746Z,6.47
2022-11-17T00:59:10.921Z,6.40
2022-11-17T01:01:37.603Z,6.49
2022-11-17T01:04:04.635Z,6.62
2022-11-17T01:06:35.902Z,6.49
2022-11-17T01:09:05.640Z,6.55
2022-11-17T01:11:32.979Z,6.97
2022-11-17T01:14:00.803Z,7.05
2022-11-17T01:16:29.099Z,6.73
2022-11-17T01:19:01.385Z,6.49
2022-11-17T01:21:30.048Z,6.29
2022-11-17T01:23:58.770Z,6.28
2022-11-17T01:26:28.805Z,6.34
2022-11-17T01:28:55.715Z,6.50
2022-11-17T01:31:28.650Z,6.11
2022-11-17T01:33:55.988Z,6.01
2022-11-17T01:36:28.841Z,6.04
2022-11-17T01:38:55.672Z,6.04
2022-11-17T01:41:27.998Z,6.34
2022-11-17T01:43:57.465Z,6.05
2022-11-17T01:46:33.313Z,5.96
2022-11-17T01:49:16.443Z,6.16
2022-11-17T01:51:47.379Z,6.07
2022-11-17T01:54:18.339Z,6.03
2022-11-17T01:56:48.626Z,6.00
2022-11-17T01:59:27.703Z,6.26
2022-11-17T02:01:55.222Z,6.46
2022-11-17T02:04:25.989Z,6.13
2022-11-17T02:06:59.832Z,6.07
2022-11-17T02:09:27.870Z,6.06
2022-11-17T02:11:58.803Z,6.12
2022-11-17T02:14:25.432Z,6.19
2022-11-17T02:16:52.159Z,6.13
2022-11-17T02:19:21.335Z,6.23
2022-11-17T02:22:30.625Z,6.08
2022-11-17T02:25:12.247Z,6.03
2022-11-17T02:27:59.667Z,6.08
2022-11-17T02:30:34.037Z,6.10
2022-11-17T02:33:12.885Z,6.47
2022-11-17T02:36:00.582Z,6.54
2022-11-17T02:38:43.526Z,6.84
2022-11-17T02:41:35.972Z,6.68
2022-11-17T02:44:23.726Z,6.65
2022-11-17T02:47:01.969Z,6.67
2022-11-17T02:49:41.321Z,6.69
2022-11-17T02:52:09.219Z,6.82
2022-11-17T02:54:35.814Z,6.78
2022-11-17T02:57:02.428Z,6.65
2022-11-17T02:59:43.100Z,6.68
2022-11-17T03:02:09.690Z,6.56
2022-11-17T03:04:57.732Z,6.73
2022-11-17T03:07:30.310Z,6.83
2022-11-17T03:10:05.937Z,6.42
2022-11-17T03:12:58.677Z,6.01
2022-11-17T03:15:48.198Z,5.87
2022-11-17T03:18:53.190Z,6.06
2022-11-17T03:21:29.286Z,6.11
2022-11-17T03:24:12.029Z,6.06
2022-11-17T03:26:48.787Z,5.82
2022-11-17T03:29:19.600Z,5.85
2022-11-17T03:31:49.236Z,5.94
2022-11-17T03:34:20.629Z,6.12
2022-11-17T03:36:52.520Z,5.82
2022-11-17T03:39:31.819Z,5.97
2022-11-17T03:42:13.467Z,6.07
2022-11-17T03:44:43.700Z,6.02
2022-11-17T03:47:13.682Z,5.75
2022-11-17T03:49:51.134Z,5.82
2022-11-17T03:52:18.960Z,5.81
2022-11-17T03:54:45.742Z,5.82
2022-11-17T03:57:42.996Z,5.61
2022-11-17T04:00:15.965Z,5.73
2022-11-17T04:02:45.697Z,5.73
2022-11-17T04:05:14.668Z,5.76
2022-11-17T04:07:46.524Z,5.18
2022-11-17T04:10:18.965Z,5.51
2022-11-17T04:12:46.501Z,5.26
2022-11-17T04:15:13.623Z,5.15
2022-11-17T04:17:40.295Z,5.22
2022-11-17T04:20:07.596Z,5.03
2022-11-17T04:22:34.256Z,5.12
2022-11-17T04:25:00.838Z,5.29
2022-11-17T04:27:27.444Z,5.38
2022-11-17T04:29:54.016Z,5.31
2022-11-17T04:32:20.627Z,5.42
2022-11-17T04:34:47.278Z,5.64
2022-11-17T04:37:13.934Z,5.68
2022-11-17T04:39:40.510Z,5.98
2022-11-17T04:42:07.100Z,5.98
2022-11-17T04:44:33.695Z,5.90
2022-11-17T04:47:00.367Z,5.93
2022-11-17T04:49:27.028Z,5.89
2022-11-17T04:51:53.997Z,5.64
2022-11-17T04:54:22.992Z,5.72
2022-11-17T04:56:50.434Z,5.79
2022-11-17T04:59:17.499Z,5.94
2022-11-17T05:01:44.656Z,6.00
2022-11-17T05:04:13.297Z,5.99
2022-11-17T05:06:40.936Z,5.75
2022-11-17T05:09:10.846Z,5.80
2022-11-17T05:11:37.622Z,5.74
2022-11-17T05:14:04.256Z,5.53
2022-11-17T05:16:30.848Z,5.50
2022-11-17T05:18:57.424Z,5.62
2022-11-17T05:21:24.048Z,5.67
2022-11-17T05:23:50.657Z,5.78
2022-11-17T05:26:17.791Z,5.77
2022-11-17T05:28:44.402Z,5.96
2022-11-17T05:31:11.233Z,5.98
2022-11-17T05:33:38.181Z,6.21
2022-11-17T05:36:06.669Z,6.40
2022-11-17T05:38:33.286Z,6.23
2022-11-17T05:41:00.157Z,6.35
2022-11-17T05:43:27.268Z,6.07
2022-11-17T05:45:54.391Z,6.09
2022-11-17T05:48:21.362Z,5.88
2022-11-17T05:50:47.963Z,5.61
2022-11-17T05:53:14.545Z,5.58
2022-11-17T05:55:41.142Z,5.43
2022-11-17T05:58:18.535Z,5.37
2022-11-17T06:00:45.354Z,5.48
2022-11-17T06:03:26.406Z,5.73
2022-11-17T06:05:53.604Z,5.65
2022-11-17T06:08:20.507Z,5.51
2022-11-17T06:10:47.152Z,5.33
2022-11-17T06:13:13.737Z,5.21
2022-11-17T06:15:40.494Z,5.10
2022-11-17T06:18:18.191Z,5.27
2022-11-17T06:20:48.662Z,5.48
2022-11-17T06:23:19.936Z,5.41
2022-11-17T06:25:46.847Z,5.51
2022-11-17T06:28:17.418Z,5.59
2022-11-17T06:30:44.572Z,5.65
2022-11-17T06:33:15.590Z,5.73
2022-11-17T06:35:44.581Z,5.74
2022-11-17T06:38:11.193Z,5.58
2022-11-17T06:40:37.834Z,5.58
2022-11-17T06:43:04.402Z,5.63
2022-11-17T06:45:41.662Z,5.65
2022-11-17T06:48:09.728Z,5.71
2022-11-17T06:50:36.383Z,5.62
2022-11-17T06:53:06.361Z,5.47
2022-11-17T06:55:33.564Z,5.51
2022-11-17T06:58:02.175Z,5.80
2022-11-17T07:00:30.480Z,5.37
2022-11-17T07:03:06.531Z,5.55
2022-11-17T07:05:34.401Z,5.51
2022-11-17T07:08:03.700Z,5.65
2022-11-17T07:10:31.095Z,5.30
2022-11-17T07:12:58.133Z,5.55
2022-11-17T07:15:25.500Z,5.69
2022-11-17T07:17:52.554Z,5.96
2022-11-17T07:20:19.798Z,6.01
2022-11-17T07:22:46.652Z,5.67
2022-11-17T07:25:14.568Z,5.69
2022-11-17T07:27:43.830Z,5.85
2022-11-17T07:30:11.054Z,5.99
2022-11-17T07:32:37.655Z,6.22
2022-11-17T07:35:04.610Z,6.15
2022-11-17T07:37:31.430Z,6.09
2022-11-17T07:39:58.068Z,6.26
2022-11-17T07:42:24.754Z,6.45
2022-11-17T07:44:51.471Z,6.46
2022-11-17T07:47:18.166Z,6.50
2022-11-17T07:49:44.822Z,6.86
2022-11-17T07:52:11.444Z,7.01
2022-11-17T07:54:38.162Z,6.69
2022-11-17T07:57:04.908Z,6.72
2022-11-17T07:59:31.576Z,6.76
2022-11-17T08:01:58.250Z,6.61
2022-11-17T08:04:24.882Z,6.62
2022-11-17T08:06:51.543Z,6.60
2022-11-17T08:09:18.251Z,6.64
2022-11-17T08:11:45.066Z,6.49
2022-11-17T08:14:11.753Z,6.67
2022-11-17T08:16:38.444Z,6.94
2022-11-17T08:19:05.063Z,6.88
2022-11-17T08:21:31.925Z,6.97
2022-11-17T08:23:58.600Z,6.63
2022-11-17T08:26:25.261Z,6.19
2022-11-17T08:28:56.877Z,6.25
2022-11-17T08:31:25.651Z,6.47
2022-11-17T08:33:52.400Z,6.79
2022-11-17T08:36:19.110Z,6.65
2022-11-17T08:38:45.755Z,6.67
2022-11-17T08:41:12.447Z,6.76
2022-11-17T08:43:39.206Z,6.67
2022-11-17T08:46:05.956Z,6.82
2022-11-17T08:48:32.794Z,6.57
2022-11-17T08:51:07.929Z,7.04
2022-11-17T08:53:34.566Z,6.75
2022-11-17T08:56:01.172Z,6.46
2022-11-17T08:58:27.797Z,6.64
2022-11-17T09:00:54.502Z,7.17
2022-11-17T09:03:21.157Z,7.42
2022-11-17T09:05:47.824Z,6.94
2022-11-17T09:11:08.676Z,7.45
2022-11-17T09:13:36.207Z,7.68
2022-11-17T09:16:08.170Z,7.69
2022-11-17T09:18:36.117Z,7.49
2022-11-17T09:21:05.104Z,7.83
2022-11-17T09:23:32.036Z,7.45
2022-11-17T09:25:59.281Z,7.63
2022-11-17T09:28:26.423Z,7.49
2022-11-17T09:30:53.611Z,7.83
2022-11-17T09:33:20.218Z,7.82
2022-11-17T09:35:46.874Z,8.11
2022-11-17T09:38:13.502Z,8.20
2022-11-17T09:40:40.961Z,7.78
2022-11-17T09:43:28.381Z,7.43
2022-11-17T09:46:07.785Z,7.69
2022-11-17T09:49:02.689Z,7.85
2022-11-17T09:51:33.086Z,7.73
2022-11-17T09:54:10.426Z,8.12
2022-11-17T09:56:39.383Z,8.24
2022-11-17T09:59:10.806Z,8.17
2022-11-17T10:01:39.249Z,8.55
2022-11-17T10:04:11.684Z,8.33
2022-11-17T10:06:38.418Z,8.57
2022-11-17T10:09:29.491Z,8.23
2022-11-17T10:12:18.277Z,8.38
2022-11-17T10:14:47.681Z,8.32
2022-11-17T10:17:14.578Z,8.82
2022-11-17T10:19:42.657Z,8.37
2022-11-17T10:22:09.225Z,8.56
2022-11-17T10:24:45.890Z,8.40
2022-11-17T10:27:33.552Z,8.53
2022-11-17T10:30:04.342Z,8.57
2022-11-17T10:32:37.214Z,8.49
2022-11-17T10:35:16.490Z,8.57
2022-11-17T10:37:52.096Z,8.66
2022-11-17T10:40:25.254Z,8.88
2022-11-17T10:43:14.285Z,8.58
2022-11-17T10:45:51.670Z,8.43
2022-11-17T10:48:24.471Z,8.65
2022-11-17T10:50:55.762Z,8.76
2022-11-17T10:53:29.049Z,8.62
2022-11-17T10:56:04.149Z,8.94
2022-11-17T10:58:32.945Z,9.02
2022-11-17T11:01:02.422Z,9.29
2022-11-17T11:03:34.989Z,9.23
2022-11-17T11:06:16.159Z,9.15
2022-11-17T11:08:48.871Z,9.33
2022-11-17T11:11:36.506Z,9.26
2022-11-17T11:14:42.243Z,9.13
2022-11-17T11:17:17.128Z,8.94
2022-11-17T11:19:52.964Z,8.71
2022-11-17T11:22:53.601Z,8.73
2022-11-17T11:25:44.290Z,9.02
2022-11-17T11:28:48.131Z,9.17
2022-11-17T11:31:50.500Z,9.27
2022-11-17T11:34:33.518Z,8.66
2022-11-17T11:37:10.245Z,8.83
2022-11-17T11:39:53.274Z,8.91
2022-11-17T11:42:41.591Z,8.46
2022-11-17T11:45:24.150Z,8.87
2022-11-17T11:48:11.952Z,8.72
2022-11-17T11:50:41.941Z,8.45
2022-11-17T11:53:28.840Z,8.56
2022-11-17T11:56:10.113Z,8.76
2022-11-17T11:58:46.747Z,8.91
2022-11-17T12:01:15.586Z,8.64
2022-11-17T12:03:54.125Z,8.94
2022-11-17T12:06:37.669Z,8.81
2022-11-17T12:09:49.717Z,9.05
2022-11-17T12:12:20.766Z,9.06
2022-11-17T12:15:19.729Z,9.31
2022-11-17T12:17:54.769Z,8.87
2022-11-17T12:20:59.732Z,8.87
2022-11-17T12:23:35.074Z,8.79
2022-11-17T12:26:02.138Z,8.82
2022-11-17T12:28:38.345Z,8.60
2022-11-17T12:31:10.384Z,8.89
2022-11-17T12:34:00.532Z,8.60
2022-11-17T12:36:32.559Z,8.99
2022-11-17T12:39:04.615Z,8.93
2022-11-17T12:41:54.837Z,9.15
2022-11-17T12:44:33.746Z,9.49
2022-11-17T12:47:09.204Z,9.44
2022-11-17T12:50:06.644Z,9.35
2022-11-17T12:53:04.049Z,9.92
2022-11-17T12:55:48.531Z,9.68
2022-11-17T12:58:18.257Z,9.53
2022-11-17T13:00:54.553Z,9.62
2022-11-17T13:04:07.859Z,9.65
2022-11-17T13:06:36.304Z,9.93
2022-11-17T13:09:03.303Z,10.39
2022-11-17T13:11:30.282Z,10.30
2022-11-17T13:14:08.904Z,10.24
2022-11-17T13:16:37.098Z,10.07
2022-11-17T13:19:04.699Z,9.58
2022-11-17T13:21:32.754Z,9.78
2022-11-17T13:23:59.826Z,9.95
2022-11-17T13:26:28.779Z,9.50
2022-11-17T13:29:10.933Z,9.60
2022-11-17T13:31:37.528Z,9.52
2022-11-17T13:34:16.558Z,9.72
2022-11-17T13:36:55.182Z,9.20
2022-11-17T13:39:26.871Z,9.10
2022-11-17T13:41:55.606Z,9.46
2022-11-17T13:44:25.734Z,9.70
2022-11-17T13:46:52.333Z,9.17
2022-11-17T13:49:34.432Z,9.28
2022-11-17T13:52:02.426Z,9.30
2022-11-17T13:54:29.770Z,9.53
2022-11-17T13:57:05.080Z,9.67
2022-11-17T13:59:35.367Z,9.97
2022-11-17T14:02:17.157Z,9.85
2022-11-17T14:05:05.582Z,9.88
2022-11-17T14:07:34.570Z,9.50
2022-11-17T14:10:22.285Z,9.82
2022-11-17T14:12:53.606Z,9.79
2022-11-17T14:15:27.313Z,9.81
2022-11-17T14:18:03.805Z,9.58
2022-11-17T14:20:33.571Z,8.84
2022-11-17T14:23:16.499Z,8.53
2022-11-17T14:25:47.803Z,8.79
2022-11-17T14:28:19.819Z,9.05
2022-11-17T14:30:51.342Z,9.15
2022-11-17T14:33:18.419Z,9.27
2022-11-17T14:35:46.548Z,9.42
2022-11-17T14:38:16.347Z,9.33
2022-11-17T14:40:42.970Z,9.66
2022-11-17T14:43:09.575Z,9.57
2022-11-17T14:45:36.254Z,9.43
2022-11-17T14:48:04.288Z,9.29
2022-11-17T14:50:31.789Z,9.29
2022-11-17T14:52:58.665Z,9.36
2022-11-17T14:55:26.570Z,9.23
2022-11-17T14:57:53.493Z,9.19
2022-11-17T15:00:20.970Z,9.34
2022-11-17T15:02:47.810Z,9.23
2022-11-17T15:05:14.531Z,9.21
2022-11-17T15:07:41.197Z,9.20
2022-11-17T15:10:09.038Z,9.33
2022-11-17T15:12:35.879Z,9.49
2022-11-17T15:15:02.905Z,9.39
2022-11-17T15:17:29.542Z,9.60
2022-11-17T15:19:56.227Z,9.34
2022-11-17T15:22:23.013Z,9.32
2022-11-17T15:24:49.710Z,9.21
2022-11-17T15:27:16.851Z,9.01
2022-11-17T15:29:43.447Z,9.01
2022-11-17T15:32:10.151Z,9.05
2022-11-17T15:34:36.802Z,9.03
2022-11-17T15:37:03.513Z,8.96
2022-11-17T15:39:30.096Z,9.04
2022-11-17T15:41:56.756Z,9.08
2022-11-17T15:44:23.618Z,9.17
2022-11-17T15:46:50.257Z,9.02
2022-11-17T15:49:17.183Z,8.99
2022-11-17T15:51:44.131Z,8.91
2022-11-17T15:54:15.127Z,8.86
2022-11-17T15:56:47.002Z,8.81
2022-11-17T15:59:14.163Z,8.73
2022-11-17T16:01:41.119Z,8.98
2022-11-17T16:04:09.999Z,8.90
2022-11-17T16:06:38.839Z,8.79
2022-11-17T16:09:06.121Z,8.71
2022-11-17T16:11:33.581Z,8.65
2022-11-17T16:14:01.303Z,8.67
2022-11-17T16:16:31.096Z,8.63
2022-11-17T16:18:58.305Z,8.75
2022-11-17T16:21:25.645Z,8.76
2022-11-17T16:23:54.368Z,8.89
2022-11-17T16:26:22.759Z,8.69
2022-11-17T16:28:49.432Z,8.63
2022-11-17T16:31:22.288Z,8.70
2022-11-17T16:33:58.523Z,8.68
2022-11-17T16:36:31.377Z,8.67
2022-11-17T16:39:02.571Z,8.59
2022-11-17T16:41:32.755Z,8.58
2022-11-17T16:43:59.596Z,8.57
2022-11-17T16:46:28.731Z,8.71
2022-11-17T16:48:56.215Z,8.84
2022-11-17T16:51:23.390Z,8.93
2022-11-17T16:53:59.432Z,8.82
2022-11-17T16:56:26.076Z,9.12
2022-11-17T16:58:52.777Z,8.92
2022-11-17T17:01:21.894Z,8.81
2022-11-17T17:03:48.613Z,8.81
2022-11-17T17:06:17.703Z,8.95
2022-11-17T17:08:44.953Z,8.58
2022-11-17T17:11:14.030Z,9.12
2022-11-17T17:13:41.999Z,9.02
2022-11-17T17:16:14.603Z,8.16
2022-11-17T17:18:42.011Z,8.81
2022-11-17T17:21:13.550Z,9.07
2022-11-17T17:23:40.398Z,9.29
2022-11-17T17:26:08.140Z,8.92
2022-11-17T17:28:37.313Z,9.00
2022-11-17T17:31:04.707Z,9.00
2022-11-17T17:33:32.066Z,8.79
2022-11-17T17:36:07.720Z,8.77
2022-11-17T17:38:34.523Z,9.04
2022-11-17T17:41:12.940Z,8.93
2022-11-17T17:43:40.714Z,8.33
2022-11-17T17:46:15.303Z,8.05
2022-11-17T17:48:44.729Z,8.65
2022-11-17T17:51:17.492Z,8.62
2022-11-17T17:53:44.574Z,7.98
2022-11-17T17:56:13.830Z,8.36
2022-11-17T17:58:41.288Z,8.56
2022-11-17T18:01:07.992Z,8.87
2022-11-17T18:03:34.951Z,8.38
2022-11-17T18:06:02.183Z,8.79
2022-11-17T18:08:29.359Z,8.24
2022-11-17T18:11:00.478Z,8.21
2022-11-17T18:13:31.351Z,8.55
2022-11-17T18:15:59.370Z,9.20
2022-11-17T18:18:25.988Z,9.37
2022-11-17T18:21:04.497Z,9.31
2022-11-17T18:23:32.206Z,8.27
2022-11-17T18:25:58.822Z,8.61
2022-11-17T18:28:25.457Z,8.70
2022-11-17T18:30:52.040Z,9.03
2022-11-17T18:33:18.680Z,9.32
2022-11-17T18:35:45.308Z,8.67
2022-11-17T18:38:12.032Z,8.70
2022-11-17T18:40:38.789Z,9.08
2022-11-17T18:43:05.422Z,9.32
2022-11-17T18:45:32.059Z,9.59
2022-11-17T18:47:58.634Z,9.83
2022-11-17T18:50:25.250Z,9.47
2022-11-17T18:52:51.943Z,8.93
2022-11-17T18:55:18.554Z,8.54
2022-11-17T18:57:45.279Z,8.64
2022-11-17T19:00:12.644Z,9.15
2022-11-17T19:02:39.230Z,9.15
2022-11-17T19:05:06.245Z,9.04
2022-11-17T19:07:32.947Z,9.12
2022-11-17T19:09:59.745Z,9.31
2022-11-17T19:12:26.512Z,9.60
2022-11-17T19:14:53.125Z,9.56
2022-11-17T19:17:19.702Z,9.11
2022-11-17T19:19:46.309Z,8.93
2022-11-17T19:22:12.909Z,9.05
2022-11-17T19:24:39.542Z,8.92
2022-11-17T19:27:06.161Z,8.64
2022-11-17T19:29:32.775Z,8.74
2022-11-17T19:31:59.391Z,8.59
2022-11-17T19:34:26.103Z,8.53
2022-11-17T19:36:52.744Z,8.22
2022-11-17T19:39:19.654Z,8.85
2022-11-17T19:41:46.381Z,9.37
2022-11-17T19:44:13.146Z,8.91
2022-11-17T19:46:39.843Z,8.84
2022-11-17T19:49:07.009Z,8.86
2022-11-17T19:51:35.441Z,8.85
2022-11-17T19:54:04.262Z,9.19
2022-11-17T19:56:30.992Z,9.42
2022-11-17T19:58:57.623Z,9.32
2022-11-17T20:01:26.681Z,9.06
2022-11-17T20:03:54.822Z,8.91
2022-11-17T20:06:24.150Z,9.03
2022-11-17T20:08:50.763Z,9.54
2022-11-17T20:11:18.239Z,9.58
2022-11-17T20:13:45.320Z,9.13
2022-11-17T20:16:14.297Z,8.74
2022-11-17T20:18:42.027Z,8.81
2022-11-17T20:21:09.867Z,8.47
2022-11-17T20:23:38.135Z,8.37
2022-11-17T20:26:06.136Z,8.95
2022-11-17T20:28:34.770Z,9.04
2022-11-17T20:31:14.643Z,8.84
2022-11-17T20:33:42.974Z,7.72
2022-11-17T20:36:13.987Z,7.68
2022-11-17T20:38:40.684Z,8.73
2022-11-17T20:41:08.339Z,7.52
2022-11-17T20:43:35.272Z,7.56
2022-11-17T20:46:03.373Z,7.76
2022-11-17T20:48:30.839Z,7.79
2022-11-17T20:51:03.069Z,8.00
2022-11-17T20:53:30.521Z,8.34
2022-11-17T20:55:58.883Z,8.64
2022-11-17T20:58:27.002Z,8.41
2022-11-17T21:00:54.464Z,8.35
2022-11-17T21:03:21.438Z,8.35
2022-11-17T21:06:00.183Z,8.70
2022-11-17T21:08:30.438Z,8.42
2022-11-17T21:11:05.826Z,8.68
2022-11-17T21:13:34.010Z,8.71
2022-11-17T21:16:06.320Z,8.24
2022-11-17T21:18:33.178Z,8.74
2022-11-17T21:20:59.782Z,8.28
2022-11-17T21:23:27.475Z,7.84
2022-11-17T21:25:54.521Z,8.40
2022-11-17T21:28:21.174Z,8.83
2022-11-17T21:30:47.855Z,8.48
2022-11-17T21:33:14.446Z,8.01
2022-11-17T21:35:41.074Z,8.03
2022-11-17T21:38:07.694Z,8.03
2022-11-17T21:40:34.281Z,8.37
2022-11-17T21:43:00.883Z,8.48
2022-11-17T21:45:27.518Z,8.22
2022-11-17T21:47:59.266Z,7.80
2022-11-17T21:50:26.875Z,8.00
2022-11-17T21:52:53.458Z,7.94
2022-11-17T21:55:20.139Z,8.38
2022-11-17T21:57:50.785Z,8.43
2022-11-17T22:00:17.782Z,7.98
2022-11-17T22:02:44.405Z,8.07
2022-11-17T22:05:11.004Z,8.24
2022-11-17T22:07:37.675Z,8.29
2022-11-17T22:10:04.758Z,8.06
2022-11-17T22:12:31.353Z,8.21
2022-11-17T22:14:57.995Z,8.11
2022-11-17T22:17:24.577Z,8.16
2022-11-17T22:19:51.180Z,8.15
2022-11-17T22:22:17.818Z,8.04
2022-11-17T22:24:49.424Z,7.91
2022-11-17T22:27:16.534Z,8.21
2022-11-17T22:29:43.431Z,8.43
2022-11-17T22:32:10.187Z,8.22
2022-11-17T22:34:36.811Z,8.30
2022-11-17T22:37:03.408Z,8.23
2022-11-17T22:39:30.154Z,8.20
2022-11-17T22:41:56.777Z,8.11
2022-11-17T22:44:23.403Z,7.94
2022-11-17T22:46:50.106Z,7.85
2022-11-17T22:49:16.933Z,7.87
2022-11-17T22:51:43.798Z,7.89
2022-11-17T22:54:10.684Z,8.54
2022-11-17T22:56:37.507Z,8.28
2022-11-17T22:59:04.173Z,8.07
2022-11-17T23:01:30.972Z,8.02
2022-11-17T23:03:58.060Z,7.89
2022-11-17T23:06:24.670Z,7.95
2022-11-17T23:08:51.312Z,7.90
2022-11-17T23:14:10.435Z,7.28
2022-11-17T23:16:38.073Z,7.55
2022-11-17T23:19:05.726Z,7.58
2022-11-17T23:21:32.802Z,7.57
2022-11-17T23:23:59.398Z,7.58
2022-11-17T23:26:26.014Z,7.57
2022-11-17T23:28:52.636Z,7.55
2022-11-17T23:31:19.260Z,7.58
2022-11-17T23:33:47.708Z,7.66
2022-11-17T23:36:19.805Z,7.63
2022-11-17T23:38:47.263Z,7.58
2022-11-17T23:41:15.800Z,7.59
2022-11-17T23:43:42.589Z,7.65
2022-11-17T23:46:20.951Z,7.57
2022-11-17T23:48:47.836Z,7.89
2022-11-17T23:51:17.492Z,7.80
2022-11-17T23:53:44.563Z,7.57
2022-11-17T23:56:11.172Z,7.41
2022-11-17T23:58:38.372Z,7.46
